Ir al Módulo  



logo_vatsim
logo_vatsur

 


CARNAVAL DE BARRANQUILLA 2015
Febrero 9 de 2015

LOS ESPERAMOS ÉSTE VIERNES 13 DE FEBRERO EN BARRANQUILLA!




NUEVO SECTOR FILE COLOMBIA
Octubre 16 de 2014

Los invitamos a descargar el nuevo SectorFile de Colombia!




Nuevo Escenario de Bogotá Recomendado
Septiembre 26 de 2014

Los invitamos a conocer el escenario desarrollado por LR30 Scenery Design de SKBO. Vatsim Colombia lo reconoce como escenario oficial de la red.

Links:

FS9: http://www.mediafire.com/download/gfuqcb7qb8r9q9n/BOG_2014_FS9.rar
FSX: http://www.mediafire.com/download/b8831kleqc5nc13/LR30_SKBO_V2.rar




 

 
Untitled Document
SKAR 060400Z 00000KT 9999 SCT025 BKN100 18/17 A3006
SKBG 060500Z 00000KT 9999 FEW010 SCT100 22/18 A3000
SKBO 060700Z 01003KT 9999 FEW020 11/09 A3028
SKBQ 060700Z 03008KT CAVOK 25/22 A2978
SKCG 060700Z 02003KT CAVOK 25/22 A2975
SKCL 060700Z 00000KT 9999 FEW020 SCT020 21/19 A2992
SKPE 060700Z VRB02KT 9999 FEW016 SCT090 20/17 A3001
SKRG 060700Z 00000KT 4000 BR BKN006 SCT080 15/14 A3027